Time;durP1;ratioP1;P1;durP2;ratioP2;P2;SDS_P1;SDS_P2;PMS_P1;PMS_P2;Temp;Humidity;BMP_temperature;BMP_pressure;BME280_temperature;BME280_humidity;BME280_pressure;Samples;Min_cycle;Max_cycle;Signal;HPM_P1;HPM_P2
2023/07/02 00:00:21;;;;;;;11.15;5.10;;;22.70;1.00;;;;;;4896846;29;20119;-55
2023/07/02 00:02:48;;;;;;;13.73;5.70;;;22.70;1.00;;;;;;4896565;29;20045;-54
2023/07/02 00:05:17;;;;;;;14.85;4.72;;;22.60;1.00;;;;;;4935421;23;20084;-56
2023/07/02 00:07:43;;;;;;;14.25;6.65;;;22.60;1.00;;;;;;4877891;29;20060;-56
2023/07/02 00:10:10;;;;;;;13.82;5.75;;;22.60;1.00;;;;;;4878721;29;20062;-54
2023/07/02 00:12:37;;;;;;;15.65;5.18;;;22.60;1.00;;;;;;4890887;29;20112;-56
2023/07/02 00:15:05;;;;;;;17.52;6.57;;;22.60;1.00;;;;;;4896488;29;20044;-54
2023/07/02 00:17:31;;;;;;;12.38;5.68;;;22.60;1.00;;;;;;4897105;29;20040;-54
2023/07/02 00:20:02;;;;;;;16.00;5.13;;;22.60;1.00;;;;;;4896277;29;20175;-55
2023/07/02 00:22:30;;;;;;;14.07;6.50;;;22.60;1.00;;;;;;4896725;29;20127;-54
2023/07/02 00:24:57;;;;;;;15.48;5.55;;;22.60;1.00;;;;;;4896477;29;20516;-51
2023/07/02 00:27:23;;;;;;;15.50;5.53;;;22.60;1.00;;;;;;4896394;29;20048;-56
2023/07/02 00:29:51;;;;;;;11.60;5.75;;;22.60;1.00;;;;;;4896602;29;20166;-54
2023/07/02 00:32:17;;;;;;;12.40;5.38;;;22.60;1.00;;;;;;4879594;29;20060;-56
2023/07/02 00:34:44;;;;;;;10.73;4.72;;;22.60;1.00;;;;;;4938838;23;20041;-55
2023/07/02 00:37:11;;;;;;;13.07;5.10;;;22.60;1.00;;;;;;4876452;29;20065;-57
2023/07/02 00:39:38;;;;;;;17.65;5.90;;;22.50;1.00;;;;;;4877481;29;20119;-57
2023/07/02 00:42:05;;;;;;;13.98;5.15;;;22.60;1.00;;;;;;4877641;29;20060;-53
2023/07/02 00:44:32;;;;;;;10.25;4.53;;;22.50;1.00;;;;;;4860763;29;20128;-55
2023/07/02 00:46:59;;;;;;;19.88;6.43;;;22.50;1.00;;;;;;4861082;29;20081;-56
2023/07/02 00:49:26;;;;;;;18.83;6.80;;;22.50;1.00;;;;;;4861081;29;20048;-55
2023/07/02 00:51:53;;;;;;;11.38;5.32;;;22.50;1.00;;;;;;4877620;29;20048;-55
2023/07/02 00:54:20;;;;;;;14.80;5.05;;;22.50;1.00;;;;;;4860542;29;20045;-52
2023/07/02 00:56:47;;;;;;;10.43;4.32;;;22.50;1.00;;;;;;4877643;29;20049;-49
2023/07/02 00:59:14;;;;;;;15.00;5.05;;;22.50;1.00;;;;;;4877615;29;20417;-52
2023/07/02 01:01:41;;;;;;;8.75;4.32;;;22.50;1.00;;;;;;4877416;29;20498;-53
2023/07/02 01:04:09;;;;;;;10.27;5.53;;;22.50;1.00;;;;;;4877299;29;20037;-53
2023/07/02 01:06:37;;;;;;;13.52;4.93;;;22.40;1.00;;;;;;4874093;29;20045;-51
2023/07/02 01:09:05;;;;;;;10.65;5.10;;;22.40;1.00;;;;;;4860703;29;20064;-49
2023/07/02 01:11:38;;;;;;;14.80;5.85;;;22.50;1.00;;;;;;4877443;29;20106;-52
2023/07/02 01:14:14;;;;;;;;;;;22.40;1.00;;;;;;4876381;29;20037;-51
2023/07/02 01:16:43;;;;;;;12.43;4.78;;;22.40;1.00;;;;;;4879869;29;20467;-53
2023/07/02 01:19:18;;;;;;;15.35;5.38;;;22.40;1.00;;;;;;4880550;29;20040;-50
2023/07/02 01:21:47;;;;;;;15.20;6.55;;;22.40;1.00;;;;;;4863878;29;20098;-50
2023/07/02 01:24:14;;;;;;;14.07;5.13;;;22.40;1.00;;;;;;4880333;29;20041;-53
2023/07/02 01:26:41;;;;;;;12.20;5.30;;;22.40;1.00;;;;;;4864227;29;20049;-52
2023/07/02 01:29:20;;;;;;;10.38;5.35;;;22.40;1.00;;;;;;4863856;29;20072;-56
2023/07/02 01:31:47;;;;;;;11.55;4.95;;;22.40;1.00;;;;;;4880439;29;20063;-56
2023/07/02 01:34:15;;;;;;;14.73;5.05;;;22.40;1.00;;;;;;4863531;29;20072;-55
2023/07/02 01:36:41;;;;;;;20.30;7.32;;;22.40;1.00;;;;;;5073066;23;20073;-56
2023/07/02 01:39:08;;;;;;;14.52;5.95;;;22.40;1.00;;;;;;4860486;29;20533;-56
2023/07/02 01:42:15;;;;;;;14.98;5.57;;;22.40;1.00;;;;;;4860291;29;20418;-56
2023/07/02 01:44:43;;;;;;;17.40;6.90;;;22.40;1.00;;;;;;4855452;29;20075;-55
2023/07/02 01:47:10;;;;;;;14.82;5.68;;;22.30;1.00;;;;;;4871446;29;20053;-55
2023/07/02 01:49:37;;;;;;;11.60;4.97;;;22.40;1.00;;;;;;4861583;29;20042;-50
2023/07/02 01:52:05;;;;;;;11.13;5.30;;;22.30;1.00;;;;;;4877031;29;20060;-54
2023/07/02 01:54:35;;;;;;;13.30;5.75;;;22.30;1.00;;;;;;4879766;29;20559;-56
2023/07/02 01:57:02;;;;;;;13.13;5.28;;;22.30;1.00;;;;;;4878801;29;20049;-54
2023/07/02 01:59:29;;;;;;;12.18;4.72;;;22.30;1.00;;;;;;4878799;29;20463;-54
2023/07/02 02:01:56;;;;;;;10.50;5.18;;;22.30;1.00;;;;;;4879844;29;20048;-55
2023/07/02 02:04:22;;;;;;;15.13;5.80;;;22.30;1.00;;;;;;4878230;29;20164;-56
2023/07/02 02:06:49;;;;;;;11.90;4.88;;;22.30;1.00;;;;;;4879957;29;20048;-56
2023/07/02 02:09:16;;;;;;;13.05;5.32;;;22.30;1.00;;;;;;5177966;23;20140;-56
2023/07/02 02:11:45;;;;;;;11.65;4.47;;;22.30;1.00;;;;;;4844014;29;20514;-52
2023/07/02 02:14:12;;;;;;;14.70;5.15;;;22.30;1.00;;;;;;4843565;29;20041;-53
2023/07/02 02:16:39;;;;;;;9.18;4.28;;;22.30;1.00;;;;;;4860970;29;20037;-54
2023/07/02 02:19:06;;;;;;;10.05;4.40;;;22.30;1.00;;;;;;4844513;29;20041;-52
2023/07/02 02:21:33;;;;;;;14.05;5.47;;;22.20;1.00;;;;;;4860978;29;20516;-54
2023/07/02 02:24:00;;;;;;;17.20;6.28;;;22.20;1.00;;;;;;4868032;29;20037;-54
2023/07/02 02:26:27;;;;;;;12.85;5.95;;;22.20;1.00;;;;;;4862370;29;20053;-52
2023/07/02 02:28:54;;;;;;;13.18;5.03;;;22.20;1.00;;;;;;4862725;29;20139;-50
2023/07/02 02:31:21;;;;;;;13.85;4.25;;;22.20;1.00;;;;;;4862571;29;20053;-49
2023/07/02 02:33:48;;;;;;;11.95;5.20;;;22.20;1.00;;;;;;4879180;29;20572;-53
2023/07/02 02:36:17;;;;;;;12.73;5.25;;;22.20;1.00;;;;;;4862617;29;20050;-50
2023/07/02 02:38:44;;;;;;;17.20;4.45;;;22.20;1.00;;;;;;4862626;29;20045;-52
2023/07/02 02:41:12;;;;;;;13.43;5.18;;;22.20;1.00;;;;;;5103499;23;20138;-54
2023/07/02 02:43:44;;;;;;;14.35;4.90;;;22.20;1.00;;;;;;4867670;29;20049;-51
2023/07/02 02:46:20;;;;;;;15.65;5.38;;;22.20;1.00;;;;;;4888057;29;20132;-54
2023/07/02 02:48:47;;;;;;;15.65;4.95;;;22.20;1.00;;;;;;4862462;29;20049;-51
2023/07/02 02:51:14;;;;;;;17.25;5.75;;;22.20;1.00;;;;;;4894144;29;20111;-54
2023/07/02 02:53:41;;;;;;;14.05;4.97;;;22.20;1.00;;;;;;4897421;29;20041;-54
2023/07/02 02:56:08;;;;;;;11.27;5.18;;;22.20;1.00;;;;;;4880779;29;20040;-54
2023/07/02 02:58:35;;;;;;;17.20;6.35;;;22.20;1.00;;;;;;4880954;29;20041;-51
2023/07/02 03:01:01;;;;;;;10.98;5.20;;;22.20;1.00;;;;;;4880813;29;20043;-52
2023/07/02 03:03:28;;;;;;;13.48;5.45;;;22.20;1.00;;;;;;4880936;29;20080;-55
2023/07/02 03:05:55;;;;;;;10.93;4.18;;;22.10;1.00;;;;;;4880721;29;20513;-52
2023/07/02 03:08:22;;;;;;;11.30;5.13;;;22.10;1.00;;;;;;4880512;29;20056;-51
2023/07/02 03:10:49;;;;;;;11.80;5.88;;;22.10;1.00;;;;;;4880574;29;20151;-56
2023/07/02 03:16:16;;;;;;;12.70;4.10;;;22.10;1.00;;;;;;4835525;29;20053;-52
2023/07/02 03:18:43;;;;;;;14.43;5.30;;;22.10;1.00;;;;;;4839573;29;20579;-54
2023/07/02 03:21:10;;;;;;;8.65;4.65;;;22.10;1.00;;;;;;4832713;29;20539;-52
2023/07/02 03:23:37;;;;;;;13.07;5.97;;;22.10;1.00;;;;;;4821962;29;20113;-51
2023/07/02 03:26:04;;;;;;;12.45;5.53;;;22.10;1.00;;;;;;4829922;29;20050;-52
2023/07/02 03:28:33;;;;;;;7.85;4.55;;;22.10;1.00;;;;;;4832990;29;20075;-53
2023/07/02 03:31:00;;;;;;;15.30;5.22;;;22.10;1.00;;;;;;4823067;29;20050;-55
2023/07/02 03:33:27;;;;;;;12.20;4.82;;;22.10;1.00;;;;;;4840298;29;20055;-52
2023/07/02 03:35:54;;;;;;;10.52;4.30;;;22.10;1.00;;;;;;4841173;29;20100;-51
2023/07/02 03:38:20;;;;;;;13.80;5.82;;;22.10;1.00;;;;;;4840491;29;20121;-52
2023/07/02 03:40:47;;;;;;;12.32;5.15;;;22.10;1.00;;;;;;4841168;29;20056;-53
2023/07/02 03:43:15;;;;;;;10.02;4.15;;;22.10;1.00;;;;;;4841215;29;20086;-51
2023/07/02 03:45:41;;;;;;;13.80;5.00;;;22.10;1.00;;;;;;4817070;29;20034;-55
2023/07/02 03:48:08;;;;;;;13.43;5.32;;;22.00;1.00;;;;;;4841163;29;20521;-50
2023/07/02 03:50:35;;;;;;;15.55;4.93;;;22.00;1.00;;;;;;4841151;29;20057;-51
2023/07/02 03:53:02;;;;;;;16.65;5.70;;;22.10;1.00;;;;;;4841320;29;20587;-50
2023/07/02 03:55:29;;;;;;;15.77;5.40;;;22.00;1.00;;;;;;4840808;29;20046;-53
2023/07/02 03:57:56;;;;;;;15.68;4.68;;;22.00;1.00;;;;;;4841121;29;20555;-52
2023/07/02 04:00:22;;;;;;;13.55;4.55;;;22.00;1.00;;;;;;4840960;29;20050;-52
2023/07/02 04:02:51;;;;;;;12.18;5.22;;;22.00;1.00;;;;;;4841435;29;20044;-53
2023/07/02 04:05:17;;;;;;;10.00;4.18;;;22.00;1.00;;;;;;4840733;29;20057;-51
2023/07/02 04:07:44;;;;;;;12.45;4.60;;;22.00;1.00;;;;;;4841026;29;20480;-51
2023/07/02 04:10:11;;;;;;;11.65;4.38;;;22.00;1.00;;;;;;4840886;29;20489;-53
2023/07/02 04:12:38;;;;;;;12.23;4.53;;;22.00;1.00;;;;;;4840910;29;20050;-50
2023/07/02 04:15:06;;;;;;;15.70;5.13;;;22.00;1.00;;;;;;4964032;23;20027;-53
2023/07/02 04:17:32;;;;;;;14.18;4.47;;;22.00;1.00;;;;;;4908328;29;20095;-49
2023/07/02 04:20:01;;;;;;;10.80;5.25;;;22.00;1.00;;;;;;4906577;29;20092;-51
2023/07/02 04:22:27;;;;;;;8.50;3.88;;;22.00;1.00;;;;;;4899371;29;20057;-51
2023/07/02 04:24:54;;;;;;;12.70;5.20;;;22.00;1.00;;;;;;4914768;29;20044;-52
2023/07/02 04:27:28;;;;;;;12.15;4.72;;;22.00;1.00;;;;;;4915351;29;20052;-56
2023/07/02 04:30:15;;;;;;;13.55;4.40;;;22.00;1.00;;;;;;4910870;29;20048;-54
2023/07/02 04:32:42;;;;;;;9.52;4.13;;;22.00;1.00;;;;;;4915304;29;20439;-55
2023/07/02 04:35:11;;;;;;;14.20;4.75;;;21.90;1.00;;;;;;4911818;29;20559;-55
2023/07/02 04:37:38;;;;;;;12.23;4.25;;;22.00;1.00;;;;;;4915161;29;20119;-56
2023/07/02 04:40:09;;;;;;;10.07;4.28;;;22.00;1.00;;;;;;4915441;29;20339;-56
2023/07/02 04:42:38;;;;;;;12.07;4.40;;;22.00;1.00;;;;;;4899817;29;20040;-55
2023/07/02 04:48:00;;;;;;;10.65;4.80;;;21.90;1.00;;;;;;4908075;29;20048;-55
2023/07/02 04:50:27;;;;;;;11.38;4.40;;;21.90;1.00;;;;;;4914349;29;20075;-55
2023/07/02 04:52:55;;;;;;;16.58;5.05;;;21.90;1.00;;;;;;4894483;29;20037;-56
2023/07/02 04:55:22;;;;;;;13.68;4.68;;;21.90;1.00;;;;;;4889800;29;20040;-54
2023/07/02 04:57:49;;;;;;;12.25;4.68;;;21.90;1.00;;;;;;4896656;29;20040;-53
2023/07/02 05:00:16;;;;;;;11.70;5.43;;;21.90;1.00;;;;;;4888521;29;20066;-53
2023/07/02 05:02:43;;;;;;;14.13;4.32;;;21.90;1.00;;;;;;4879130;29;20053;-54
2023/07/02 05:05:10;;;;;;;11.73;4.53;;;21.90;1.00;;;;;;4872832;29;20413;-53
2023/07/02 05:07:37;;;;;;;19.00;4.55;;;21.90;1.00;;;;;;4873592;29;20045;-53
2023/07/02 05:10:04;;;;;;;10.90;4.40;;;21.90;1.00;;;;;;4872742;29;20413;-54
2023/07/02 05:12:31;;;;;;;13.05;4.63;;;21.80;1.00;;;;;;4886654;29;20056;-55
2023/07/02 05:14:58;;;;;;;13.32;4.90;;;21.80;1.00;;;;;;4885734;29;20524;-53
2023/07/02 05:17:25;;;;;;;19.92;4.68;;;21.80;1.00;;;;;;4961858;23;20068;-51
2023/07/02 05:19:52;;;;;;;13.90;4.68;;;21.80;1.00;;;;;;4869559;29;20053;-53
2023/07/02 05:22:19;;;;;;;16.27;3.17;;;21.80;1.00;;;;;;4871703;29;20056;-53
2023/07/02 05:24:46;;;;;;;9.13;3.13;;;21.80;1.00;;;;;;4888706;29;20125;-50
2023/07/02 05:27:13;;;;;;;14.70;4.13;;;21.80;1.00;;;;;;4896400;29;20101;-51
2023/07/02 05:29:40;;;;;;;14.50;4.03;;;21.70;1.00;;;;;;4884053;29;20505;-54
2023/07/02 05:32:07;;;;;;;15.10;5.03;;;21.70;1.00;;;;;;4880569;29;22128;-56
2023/07/02 05:34:34;;;;;;;9.50;3.45;;;21.70;1.00;;;;;;4889119;29;20119;-50
2023/07/02 05:37:01;;;;;;;9.35;3.65;;;21.70;1.00;;;;;;4887983;29;20052;-53
2023/07/02 05:39:28;;;;;;;14.65;3.67;;;21.70;1.00;;;;;;4899035;29;20044;-50
2023/07/02 05:41:54;;;;;;;12.43;3.10;;;21.70;1.00;;;;;;4882828;29;20128;-51
2023/07/02 05:44:21;;;;;;;9.48;2.97;;;21.70;1.00;;;;;;4894047;29;20068;-50
2023/07/02 05:46:48;;;;;;;6.20;2.67;;;21.70;1.00;;;;;;4889628;23;20068;-51
2023/07/02 05:49:15;;;;;;;13.48;4.03;;;21.70;1.00;;;;;;4880178;29;20044;-54
2023/07/02 05:51:42;;;;;;;7.60;3.08;;;21.70;1.00;;;;;;4875717;29;20485;-55
2023/07/02 05:54:09;;;;;;;12.07;3.85;;;21.70;1.00;;;;;;4878893;29;20076;-52
2023/07/02 05:56:36;;;;;;;13.75;3.00;;;21.70;1.00;;;;;;4879625;29;20056;-53
2023/07/02 05:59:03;;;;;;;8.88;3.33;;;21.70;1.00;;;;;;4878328;29;20044;-52
2023/07/02 06:01:29;;;;;;;9.20;3.70;;;21.60;1.00;;;;;;4877642;29;20116;-54
2023/07/02 06:03:56;;;;;;;14.32;3.53;;;21.70;1.00;;;;;;4878962;29;20036;-53
2023/07/02 06:06:26;;;;;;;10.93;3.17;;;21.70;1.00;;;;;;4877609;29;20050;-51
2023/07/02 06:08:53;;;;;;;11.30;4.30;;;21.70;1.00;;;;;;4878454;29;20119;-56
2023/07/02 06:11:20;;;;;;;10.27;3.05;;;21.70;1.00;;;;;;4875212;29;20472;-51
2023/07/02 06:13:47;;;;;;;10.32;2.70;;;21.70;1.00;;;;;;4872396;29;20402;-55
2023/07/02 06:16:13;;;;;;;6.97;3.58;;;21.70;1.00;;;;;;4879728;29;20049;-54
2023/07/02 06:18:41;;;;;;;8.95;3.15;;;21.70;1.00;;;;;;5334124;23;20090;-55
2023/07/02 06:21:08;;;;;;;10.98;3.97;;;21.70;1.00;;;;;;4867664;29;20088;-52
2023/07/02 06:23:42;;;;;;;11.52;3.78;;;21.70;1.00;;;;;;4860601;29;20522;-50
2023/07/02 06:26:09;;;;;;;11.20;3.45;;;21.70;1.00;;;;;;4859288;29;20073;-52
2023/07/02 06:28:37;;;;;;;14.55;4.07;;;21.70;1.00;;;;;;4859024;29;20041;-56
2023/07/02 06:31:04;;;;;;;13.20;4.22;;;21.70;1.00;;;;;;4856323;29;20128;-53
2023/07/02 06:33:31;;;;;;;14.07;4.18;;;21.70;1.00;;;;;;4859924;29;20033;-54
2023/07/02 06:35:58;;;;;;;15.70;3.72;;;21.70;1.00;;;;;;4860201;29;20071;-53
2023/07/02 06:38:25;;;;;;;12.48;3.80;;;21.70;1.00;;;;;;4854013;29;20227;-53
2023/07/02 06:40:52;;;;;;;11.88;4.13;;;21.70;1.00;;;;;;4857409;29;20106;-51
2023/07/02 06:43:19;;;;;;;11.85;3.97;;;21.70;1.00;;;;;;4857663;29;21698;-56
2023/07/02 06:45:45;;;;;;;10.07;3.42;;;21.70;1.00;;;;;;4861837;29;20051;-52
2023/07/02 06:48:16;;;;;;;15.13;4.20;;;21.70;1.00;;;;;;4852396;29;20045;-55
2023/07/02 06:50:44;;;;;;;14.32;3.55;;;21.70;1.00;;;;;;4968577;23;20086;-50
2023/07/02 06:53:11;;;;;;;11.07;4.32;;;21.70;1.00;;;;;;4878890;29;20049;-54
2023/07/02 06:55:38;;;;;;;11.80;3.75;;;21.70;1.00;;;;;;4888241;29;20056;-55
2023/07/02 06:58:06;;;;;;;10.45;3.30;;;21.70;1.00;;;;;;4878740;29;20045;-55
2023/07/02 07:00:35;;;;;;;9.63;3.90;;;21.70;1.00;;;;;;4884139;29;20045;-55
2023/07/02 07:03:05;;;;;;;12.13;3.20;;;21.70;1.00;;;;;;4897500;29;20041;-52
2023/07/02 07:05:32;;;;;;;12.25;4.35;;;21.70;1.00;;;;;;4897326;29;20068;-53
2023/07/02 07:08:03;;;;;;;9.10;4.05;;;21.70;1.00;;;;;;4897382;29;20080;-53
2023/07/02 07:10:34;;;;;;;7.82;3.25;;;21.70;1.00;;;;;;4896059;29;20057;-55
2023/07/02 07:13:04;;;;;;;12.05;3.65;;;21.70;1.00;;;;;;4876774;29;20075;-56
2023/07/02 07:15:33;;;;;;;14.65;3.63;;;21.70;1.00;;;;;;4878552;29;20048;-52
2023/07/02 07:18:01;;;;;;;7.72;4.57;;;21.70;1.00;;;;;;4874624;29;20120;-53
2023/07/02 07:23:28;;;;;;;12.65;3.40;;;21.70;1.00;;;;;;4876641;29;20608;-55
2023/07/02 07:25:55;;;;;;;11.25;3.15;;;21.70;1.00;;;;;;4878516;29;20122;-53
2023/07/02 07:28:22;;;;;;;8.77;3.08;;;21.70;1.00;;;;;;4886343;29;20124;-55
2023/07/02 07:30:49;;;;;;;6.85;2.45;;;21.70;1.00;;;;;;4896869;29;20166;-56
2023/07/02 07:33:16;;;;;;;10.50;3.17;;;21.70;1.00;;;;;;4883700;29;20048;-57
2023/07/02 07:35:43;;;;;;;7.88;2.95;;;21.70;1.00;;;;;;4895024;29;20068;-56
2023/07/02 07:38:14;;;;;;;9.05;3.85;;;21.70;1.00;;;;;;4887979;29;20088;-55
2023/07/02 07:40:42;;;;;;;11.73;3.53;;;21.70;1.00;;;;;;4881825;29;20120;-56
2023/07/02 07:43:10;;;;;;;15.65;3.30;;;21.80;1.00;;;;;;4887187;29;20040;-56
2023/07/02 07:45:37;;;;;;;9.48;4.03;;;21.80;1.00;;;;;;4895026;29;20075;-56
2023/07/02 07:48:05;;;;;;;14.30;4.20;;;21.80;1.00;;;;;;4896743;29;20052;-56
2023/07/02 07:50:32;;;;;;;7.15;2.97;;;21.80;1.00;;;;;;4896665;29;20131;-53
2023/07/02 07:56:00;;;;;;;10.70;3.60;;;21.90;1.00;;;;;;4888829;29;20072;-53
2023/07/02 07:58:26;;;;;;;10.60;2.72;;;21.90;1.00;;;;;;4896591;29;20604;-55
2023/07/02 08:00:53;;;;;;;11.82;2.70;;;21.80;1.00;;;;;;4896746;29;20412;-56
2023/07/02 08:03:20;;;;;;;8.05;2.88;;;21.90;1.00;;;;;;4896518;29;20051;-57
2023/07/02 08:05:47;;;;;;;10.93;2.97;;;21.80;1.00;;;;;;4896550;29;20473;-53
2023/07/02 08:08:14;;;;;;;7.38;2.80;;;21.90;1.00;;;;;;4872115;29;20519;-53
2023/07/02 08:10:41;;;;;;;10.23;2.88;;;21.80;1.00;;;;;;4896370;29;20108;-50
2023/07/02 08:13:08;;;;;;;10.55;3.53;;;21.80;1.00;;;;;;4883852;29;20055;-53
2023/07/02 08:15:35;;;;;;;14.88;3.20;;;21.90;1.00;;;;;;4871562;29;20041;-55
2023/07/02 08:18:03;;;;;;;9.63;2.75;;;21.90;1.00;;;;;;4866250;29;20037;-52
2023/07/02 08:20:30;;;;;;;7.68;3.13;;;21.80;1.00;;;;;;4877897;29;20466;-51
2023/07/02 08:22:57;;;;;;;11.18;3.08;;;21.80;1.00;;;;;;4870608;29;20064;-54
2023/07/02 08:25:26;;;;;;;20.42;3.50;;;21.80;1.00;;;;;;4927248;23;20096;-52
2023/07/02 08:27:53;;;;;;;10.75;3.95;;;21.80;1.00;;;;;;4874838;29;20611;-55
2023/07/02 08:30:20;;;;;;;8.75;2.65;;;21.80;1.00;;;;;;4878907;29;20120;-53
2023/07/02 08:32:47;;;;;;;8.40;2.70;;;21.80;1.00;;;;;;4880851;29;20108;-53
2023/07/02 08:35:14;;;;;;;8.48;2.85;;;21.80;1.00;;;;;;4881265;29;20512;-54
2023/07/02 08:37:41;;;;;;;14.40;3.72;;;21.80;1.00;;;;;;4865616;29;20395;-56
2023/07/02 08:40:17;;;;;;;12.32;3.17;;;21.80;1.00;;;;;;4894817;29;20119;-56
2023/07/02 08:42:46;;;;;;;13.45;3.35;;;21.80;1.00;;;;;;4886581;29;20033;-56
2023/07/02 08:45:16;;;;;;;16.27;3.53;;;21.80;1.00;;;;;;4879831;29;20390;-54
2023/07/02 08:47:45;;;;;;;16.40;2.50;;;21.80;1.00;;;;;;4883561;29;20133;-54
2023/07/02 08:50:13;;;;;;;9.50;3.80;;;21.80;1.00;;;;;;4893402;29;20055;-54
2023/07/02 08:52:40;;;;;;;17.90;3.38;;;21.80;1.00;;;;;;4883131;29;20504;-50
2023/07/02 08:55:07;;;;;;;11.35;3.45;;;21.80;1.00;;;;;;4997808;23;20478;-50
2023/07/02 08:57:35;;;;;;;13.00;3.60;;;21.80;1.00;;;;;;4867371;29;20061;-54
2023/07/02 09:00:09;;;;;;;15.20;2.97;;;21.80;1.00;;;;;;4862419;29;20513;-50
2023/07/02 09:02:36;;;;;;;6.85;3.83;;;21.80;1.00;;;;;;4861867;29;20049;-52
2023/07/02 09:05:04;;;;;;;11.35;3.67;;;21.80;1.00;;;;;;4858472;29;20565;-51
2023/07/02 09:07:32;;;;;;;10.85;2.88;;;21.80;1.00;;;;;;4858757;29;20045;-54
2023/07/02 09:09:59;;;;;;;9.93;2.78;;;21.80;1.00;;;;;;4856838;29;20466;-52
2023/07/02 09:12:30;;;;;;;10.90;3.45;;;21.80;1.00;;;;;;4857702;29;20049;-51
2023/07/02 09:15:04;;;;;;;7.45;3.28;;;21.80;1.00;;;;;;4859992;29;20042;-53
2023/07/02 09:17:36;;;;;;;8.73;2.72;;;21.90;1.00;;;;;;4870174;29;20482;-50
2023/07/02 09:20:08;;;;;;;9.23;2.33;;;21.90;1.00;;;;;;4873949;29;20561;-49
2023/07/02 09:22:36;;;;;;;28.48;3.13;;;22.00;1.00;;;;;;4863023;29;20124;-48
2023/07/02 09:27:59;;;;;;;11.30;3.60;;;22.00;1.00;;;;;;4875264;29;20053;-52
2023/07/02 09:30:26;;;;;;;15.48;2.90;;;22.00;1.00;;;;;;4872851;29;20076;-50
2023/07/02 09:32:54;;;;;;;11.25;3.13;;;22.00;1.00;;;;;;4889425;29;20090;-54
2023/07/02 09:35:21;;;;;;;7.93;2.42;;;22.00;1.00;;;;;;4892727;29;20501;-50
2023/07/02 09:37:49;;;;;;;22.33;2.58;;;22.00;1.00;;;;;;4897496;29;20405;-48
2023/07/02 09:40:17;;;;;;;3.88;1.88;;;22.00;1.00;;;;;;4890474;29;20131;-49
2023/07/02 09:42:52;;;;;;;8.00;2.20;;;22.00;1.00;;;;;;4875770;29;20144;-49
2023/07/02 09:45:19;;;;;;;10.18;3.08;;;22.00;1.00;;;;;;4885296;29;20119;-51
2023/07/02 09:47:51;;;;;;;12.43;3.15;;;22.00;1.00;;;;;;4875981;29;20041;-53
2023/07/02 09:50:20;;;;;;;7.18;2.40;;;22.00;1.00;;;;;;4883657;29;20104;-51
2023/07/02 09:52:48;;;;;;;10.40;2.72;;;22.00;1.00;;;;;;4879219;29;20486;-52
2023/07/02 09:55:16;;;;;;;17.80;4.35;;;22.00;1.00;;;;;;4881163;29;20128;-53
2023/07/02 09:57:51;;;;;;;9.77;2.92;;;22.00;1.00;;;;;;4958710;23;20093;31
2023/07/02 10:00:18;;;;;;;10.25;2.17;;;22.00;1.00;;;;;;4889332;29;20052;-51
2023/07/02 10:02:51;;;;;;;9.65;2.40;;;22.00;1.00;;;;;;4884937;29;20072;-49
2023/07/02 10:05:31;;;;;;;8.70;2.67;;;22.00;1.00;;;;;;4895711;29;20052;-49
2023/07/02 10:08:22;;;;;;;7.72;2.17;;;22.00;1.00;;;;;;4896459;29;20068;-54
2023/07/02 10:10:49;;;;;;;8.90;2.10;;;22.00;1.00;;;;;;4898619;29;20050;-49
2023/07/02 10:13:27;;;;;;;10.45;2.67;;;22.00;1.00;;;;;;4888602;29;20036;-53
2023/07/02 10:16:04;;;;;;;13.10;2.70;;;22.00;1.00;;;;;;4892848;29;20051;-51
2023/07/02 10:18:32;;;;;;;10.20;3.05;;;22.00;1.00;;;;;;4894729;29;20041;-52
2023/07/02 10:20:59;;;;;;;9.73;3.22;;;22.00;1.00;;;;;;4895396;29;20049;-52
2023/07/02 10:23:35;;;;;;;13.25;3.25;;;22.00;1.00;;;;;;4884071;29;20115;-55
2023/07/02 10:26:19;;;;;;;7.68;2.72;;;22.00;1.00;;;;;;4898417;29;20044;-55
2023/07/02 10:28:59;;;;;;;12.82;4.60;;;22.00;1.00;;;;;;4951584;23;20108;-54
2023/07/02 10:31:26;;;;;;;10.70;3.85;;;22.00;1.00;;;;;;4872946;29;20676;-49
2023/07/02 10:33:53;;;;;;;14.13;3.45;;;22.00;1.00;;;;;;4863173;29;20401;-55
2023/07/02 10:36:22;;;;;;;9.13;3.05;;;22.00;1.00;;;;;;4871744;29;20047;-54
2023/07/02 10:38:50;;;;;;;13.48;3.17;;;21.90;1.00;;;;;;4861341;29;20069;-56
2023/07/02 10:41:28;;;;;;;9.88;3.47;;;22.00;1.00;;;;;;4868186;29;20057;-52
2023/07/02 10:44:08;;;;;;;12.32;3.28;;;22.00;1.00;;;;;;4863437;29;20498;-54
2023/07/02 10:46:48;;;;;;;10.48;3.60;;;22.00;1.00;;;;;;4879202;29;20043;-49
2023/07/02 10:49:20;;;;;;;9.43;3.38;;;22.00;1.00;;;;;;4879124;29;20101;-55
2023/07/02 10:51:57;;;;;;;7.15;2.92;;;22.00;1.00;;;;;;4878853;29;20041;-51
2023/07/02 10:54:24;;;;;;;10.32;2.83;;;22.00;1.00;;;;;;4869999;29;20046;-49
2023/07/02 10:56:57;;;;;;;8.68;3.05;;;22.00;1.00;;;;;;4864616;29;20081;-53
2023/07/02 10:59:25;;;;;;;14.40;4.72;;;22.00;1.00;;;;;;4855935;29;20117;-52
2023/07/02 11:01:51;;;;;;;15.35;3.92;;;22.00;1.00;;;;;;4857457;29;20037;-52
2023/07/02 11:04:19;;;;;;;10.30;3.20;;;22.00;1.00;;;;;;4857449;29;20048;-55
2023/07/02 11:06:47;;;;;;;17.70;3.95;;;22.00;1.00;;;;;;4858342;29;20081;-50
2023/07/02 11:09:20;;;;;;;11.35;2.92;;;22.00;1.00;;;;;;4854868;29;20048;-54
2023/07/02 11:11:55;;;;;;;11.00;4.18;;;22.00;1.00;;;;;;4854563;29;20114;-53
2023/07/02 11:14:36;;;;;;;16.80;3.33;;;22.00;1.00;;;;;;4857964;29;20470;-50
2023/07/02 11:17:05;;;;;;;17.38;4.53;;;22.00;1.00;;;;;;4856576;29;20045;-53
2023/07/02 11:19:36;;;;;;;15.73;3.97;;;22.00;1.00;;;;;;4859325;29;20073;-54
2023/07/02 11:22:03;;;;;;;14.55;4.43;;;22.00;1.00;;;;;;4853274;29;20435;-51
2023/07/02 11:24:31;;;;;;;11.70;3.25;;;22.00;1.00;;;;;;4858913;29;20443;-55
2023/07/02 11:26:59;;;;;;;12.57;4.82;;;22.00;1.00;;;;;;4855279;29;20153;-54
2023/07/02 11:32:18;;;;;;;8.00;4.22;;;22.00;1.00;;;;;;4874667;29;20057;-54
2023/07/02 11:34:54;;;;;;;9.25;3.33;;;22.00;1.00;;;;;;4874096;29;20102;-49
2023/07/02 11:37:21;;;;;;;12.40;3.60;;;22.00;1.00;;;;;;4873810;29;20049;-48
2023/07/02 11:39:48;;;;;;;19.70;4.97;;;22.00;1.00;;;;;;4882668;29;20033;-55
2023/07/02 11:42:15;;;;;;;9.38;3.53;;;22.00;1.00;;;;;;4875344;29;20061;-49
2023/07/02 11:44:42;;;;;;;12.20;3.70;;;22.00;1.00;;;;;;4877934;29;20045;-51
2023/07/02 11:47:09;;;;;;;12.52;4.43;;;22.00;1.00;;;;;;4877944;29;20041;-53
2023/07/02 11:49:35;;;;;;;10.50;4.57;;;22.00;1.00;;;;;;4878088;29;20051;-52
2023/07/02 11:52:02;;;;;;;16.13;3.38;;;22.00;1.00;;;;;;4878063;29;20056;-50
2023/07/02 11:54:31;;;;;;;11.00;3.67;;;22.00;1.00;;;;;;4877883;29;20044;-50
2023/07/02 11:56:57;;;;;;;9.48;3.47;;;22.00;1.00;;;;;;4877992;29;20045;-51
2023/07/02 11:59:24;;;;;;;10.38;3.63;;;22.00;1.00;;;;;;4877326;29;20051;-49
2023/07/02 12:01:51;;;;;;;11.30;3.45;;;22.00;1.00;;;;;;4878016;29;20437;-51
2023/07/02 12:04:18;;;;;;;10.05;3.67;;;22.00;1.00;;;;;;4878014;29;20048;-50
2023/07/02 12:06:45;;;;;;;9.80;3.97;;;22.00;1.00;;;;;;4878041;29;20501;-51
2023/07/02 12:09:12;;;;;;;8.18;3.78;;;22.00;1.00;;;;;;4877906;29;20041;-49
2023/07/02 12:11:39;;;;;;;9.73;3.08;;;22.00;1.00;;;;;;4877821;29;20041;-55
2023/07/02 12:14:05;;;;;;;14.05;4.20;;;22.00;1.00;;;;;;4877601;29;20116;-53
2023/07/02 12:16:32;;;;;;;10.32;2.92;;;22.00;1.00;;;;;;4878156;29;20052;-54
2023/07/02 12:18:59;;;;;;;10.43;3.63;;;22.00;1.00;;;;;;4877819;29;20048;-53
2023/07/02 12:21:26;;;;;;;13.05;3.50;;;22.10;1.00;;;;;;4877925;29;20126;-53
2023/07/02 12:23:53;;;;;;;11.98;4.57;;;22.00;1.00;;;;;;4877635;29;20410;-51
2023/07/02 12:26:20;;;;;;;11.80;4.60;;;22.00;1.00;;;;;;4877862;29;20079;-53
2023/07/02 12:28:47;;;;;;;9.90;3.72;;;22.10;1.00;;;;;;4877836;29;20088;-56
2023/07/02 12:31:13;;;;;;;9.15;3.55;;;22.10;1.00;;;;;;5090777;23;20320;-53
2023/07/02 12:33:40;;;;;;;6.50;3.17;;;22.10;1.00;;;;;;4893384;29;20052;-54
2023/07/02 12:36:07;;;;;;;7.78;2.95;;;22.10;1.00;;;;;;4896638;29;20120;-55
2023/07/02 12:38:34;;;;;;;13.07;4.03;;;22.10;1.00;;;;;;4896454;29;20083;-55
2023/07/02 12:41:01;;;;;;;12.48;3.67;;;22.10;1.00;;;;;;4896101;29;20047;-54
2023/07/02 12:43:28;;;;;;;7.35;2.47;;;22.10;1.00;;;;;;4896342;29;20124;-55
2023/07/02 12:45:54;;;;;;;7.03;3.47;;;22.10;1.00;;;;;;4896223;29;20136;-55
2023/07/02 12:48:21;;;;;;;7.88;3.20;;;22.10;1.00;;;;;;4896520;29;20123;-54
2023/07/02 12:50:58;;;;;;;9.20;3.10;;;22.10;1.00;;;;;;4892297;29;20051;-54
2023/07/02 12:53:26;;;;;;;15.75;3.20;;;22.10;1.00;;;;;;4870840;29;20048;-54
2023/07/02 12:55:54;;;;;;;8.45;3.53;;;22.10;1.00;;;;;;4877562;29;20080;-55
2023/07/02 12:58:21;;;;;;;12.68;3.85;;;22.10;1.00;;;;;;4877966;29;20480;-52
2023/07/02 13:00:48;;;;;;;9.95;3.33;;;22.10;1.00;;;;;;4877298;29;20041;-55
2023/07/02 13:06:19;;;;;;;10.00;3.35;;;22.10;1.00;;;;;;4873206;29;20060;-55
2023/07/02 13:08:46;;;;;;;6.90;3.13;;;22.10;1.00;;;;;;4873189;29;20070;-52
2023/07/02 13:11:14;;;;;;;11.25;3.67;;;22.10;1.00;;;;;;4878245;29;20572;-55
2023/07/02 13:13:41;;;;;;;13.50;3.85;;;22.10;1.00;;;;;;4877090;29;20077;-52
2023/07/02 13:16:08;;;;;;;12.75;3.33;;;22.10;1.00;;;;;;4879151;29;20124;-53